Comfort, Texas
Current Conditions -  °F | °C
As of 5:55 PM on Friday 21 Nov 2014 (Local Time) from KERV Reporting Station
Overcast Overcast  
Wind Chill: 69°   Ceiling: 2000
Heat Index: 69°   Visibility: 10mi
Dew Point: 65°   Wind: 9mph
Humidity: 87%   Direction: 140°SE
Pressure: 30.02"   Gusts: NA
Location:  29.97°N, 98.91°W
Report Text: KERV 212355Z AUTO 14008KT 10SM SCT014 BKN020 OVC044 21/18 A3002 RMK AO2 LTG DSNT E T02050182 10225 20205
Loading
Personal Weather Stations






























Interactive Weather Map New forecast layout! Learn more

10-Day Weather Forecast

Advertisements
Track Severe Weather on mobile